Tabatinga, Brazil
Current Conditions -  °F | °C
As of 1:00 PM on Sunday 21 Dec 2014 (Local Time) from SBTT Reporting Station
Light Rain Light Rain  
Wind Chill: 88°   Ceiling: 2000
Heat Index: 102°   Visibility: 6mi
Dew Point: 79°   Wind: 5mph
Humidity: 75%   Direction: 290°WNW
Pressure: 29.8"   Gusts: NA
Location:  4.25°S, 69.93°W
Report Text: SBTT 211800Z 29004KT 9999 -RA BKN020 FEW025TCU 31/26 Q1009
Loading
Personal Weather Stations






























Interactive Weather Map New forecast layout! Learn more

10-Day Weather Forecast

Advertisements
Track Severe Weather on mobile